Time;durP1;ratioP1;P1;durP2;ratioP2;P2;SDS_P1;SDS_P2;PMS_P1;PMS_P2;Temp;Humidity;BMP_temperature;BMP_pressure;BME280_temperature;BME280_humidity;BME280_pressure;Samples;Min_cycle;Max_cycle;Signal;HPM_P1;HPM_P2
2023/07/02 00:01:40;;;;;;;2.63;1.30;;;;;;;16.65;98.04;97970.84;4133782;28;20731;-52
2023/07/02 00:03:42;;;;;;;3.60;1.60;;;;;;;16.57;98.55;97965.19;4131534;28;20205;-52
2023/07/02 00:05:44;;;;;;;2.28;1.60;;;;;;;16.60;98.63;97964.56;4145840;28;20664;-52
2023/07/02 00:07:46;;;;;;;1.60;1.50;;;;;;;16.55;98.12;97970.22;4138584;28;20205;-52
2023/07/02 00:09:48;;;;;;;3.33;1.58;;;;;;;16.57;98.31;97967.94;4132947;28;20240;-52
2023/07/02 00:11:50;;;;;;;2.75;1.25;;;;;;;16.56;97.95;97967.13;4134258;28;20237;-51
2023/07/02 00:13:51;;;;;;;3.03;1.38;;;;;;;16.47;98.01;97966.19;4133233;28;20214;-52
2023/07/02 00:15:53;;;;;;;2.00;1.40;;;;;;;16.63;97.69;97967.56;4118645;28;20234;-52
2023/07/02 00:17:57;;;;;;;9.95;1.92;;;;;;;16.52;97.47;97970.78;4136138;28;20606;-52
2023/07/02 00:20:06;;;;;;;1.35;1.15;;;;;;;16.63;97.54;97962.03;4136422;28;20210;-51
2023/07/02 00:22:09;;;;;;;3.08;1.67;;;;;;;16.61;97.53;97961.50;4139103;28;20674;-52
2023/07/02 00:24:11;;;;;;;2.47;1.40;;;;;;;16.63;97.30;97959.25;4149372;28;20618;-52
2023/07/02 00:26:12;;;;;;;1.30;1.00;;;;;;;16.56;97.36;97955.25;4135749;28;20248;-52
2023/07/02 00:28:14;;;;;;;1.55;1.45;;;;;;;16.60;97.20;97967.34;4123750;28;20213;-52
2023/07/02 00:30:16;;;;;;;2.42;1.13;;;;;;;16.68;96.84;97959.19;4146032;28;20221;-52
2023/07/02 00:32:18;;;;;;;1.90;1.20;;;;;;;16.52;97.22;97966.09;4140310;28;20220;-52
2023/07/02 00:34:20;;;;;;;2.22;1.77;;;;;;;16.50;97.35;97967.53;4139895;28;20216;-52
2023/07/02 00:36:22;;;;;;;2.40;1.20;;;;;;;16.41;97.31;97972.06;4134521;28;20320;-52
2023/07/02 00:38:23;;;;;;;2.70;1.35;;;;;;;16.51;97.30;97970.00;4135450;28;20672;-52
2023/07/02 00:40:27;;;;;;;1.88;1.23;;;;;;;16.46;97.16;97961.78;4147019;28;20213;-52
2023/07/02 00:42:30;;;;;;;2.58;1.50;;;;;;;16.48;96.83;97970.56;4137478;28;20201;-53
2023/07/02 00:44:31;;;;;;;1.23;1.10;;;;;;;16.49;96.07;97976.94;4135968;28;20218;-52
2023/07/02 00:46:35;;;;;;;3.90;1.40;;;;;;;16.49;96.19;97977.72;4138437;28;20688;-51
2023/07/02 00:48:38;;;;;;;3.25;1.40;;;;;;;16.39;95.87;97977.09;4137162;28;20255;-51
2023/07/02 00:50:40;;;;;;;2.35;1.40;;;;;;;16.36;95.71;97970.19;4131234;28;20253;-52
2023/07/02 00:52:42;;;;;;;1.52;1.20;;;;;;;16.42;95.66;97970.97;4136911;28;20719;-52
2023/07/02 00:54:43;;;;;;;2.25;1.23;;;;;;;16.25;94.80;97971.47;4124359;28;20221;-52
2023/07/02 00:56:50;;;;;;;2.50;1.63;;;;;;;16.23;95.12;97973.69;4135824;28;20307;-51
2023/07/02 00:58:54;;;;;;;2.42;1.48;;;;;;;16.33;95.34;97973.56;4133860;28;20385;-52
2023/07/02 01:00:56;;;;;;;4.07;2.03;;;;;;;16.31;94.21;97974.97;4151289;28;20306;-51
2023/07/02 01:02:58;;;;;;;3.45;1.73;;;;;;;16.18;94.84;97981.25;4136036;28;20198;-53
2023/07/02 01:05:01;;;;;;;2.70;1.75;;;;;;;16.10;94.96;97985.50;4135342;28;20854;-52
2023/07/02 01:07:08;;;;;;;1.50;1.40;;;;;;;16.11;94.96;97981.63;4137484;28;20232;-52
2023/07/02 01:09:10;;;;;;;3.10;1.75;;;;;;;16.08;94.47;97990.50;4135375;28;21726;-51
2023/07/02 01:11:12;;;;;;;3.20;1.80;;;;;;;16.24;93.53;97997.41;4150953;28;20689;-51
2023/07/02 01:13:17;;;;;;;4.03;1.67;;;;;;;16.23;93.87;97990.25;4139300;28;20296;-51
2023/07/02 01:15:18;;;;;;;3.83;1.80;;;;;;;16.14;93.83;97992.06;4135223;28;20212;-52
2023/07/02 01:17:22;;;;;;;2.10;1.50;;;;;;;16.18;93.84;97987.59;4149977;28;20374;-52
2023/07/02 01:19:58;;;;;;;3.67;2.13;;;;;;;16.14;93.80;97992.06;4141951;28;20221;-51
2023/07/02 01:22:01;;;;;;;3.80;2.35;;;;;;;16.06;94.45;97995.50;4140522;28;20275;-52
2023/07/02 01:24:04;;;;;;;2.92;2.10;;;;;;;16.08;94.67;97998.78;4151734;28;20292;-53
2023/07/02 01:26:05;;;;;;;4.47;1.98;;;;;;;16.00;94.95;97996.69;4140290;28;20233;-52
2023/07/02 01:28:07;;;;;;;5.00;2.13;;;;;;;16.04;95.17;97999.66;4137186;28;20708;-52
2023/07/02 01:30:10;;;;;;;8.18;2.38;;;;;;;16.00;95.54;97996.69;4138921;28;20268;-52
2023/07/02 01:32:13;;;;;;;4.43;2.60;;;;;;;16.02;95.20;97994.44;4140101;28;20600;-52
2023/07/02 01:34:15;;;;;;;3.35;2.45;;;;;;;15.99;95.53;97985.94;4139794;28;20698;-52
2023/07/02 01:36:17;;;;;;;3.67;2.30;;;;;;;16.00;95.43;97988.41;4119635;28;20245;-52
2023/07/02 01:38:18;;;;;;;4.43;2.40;;;;;;;16.04;95.45;97986.69;4139424;28;20205;-51
2023/07/02 01:40:20;;;;;;;3.30;2.00;;;;;;;16.12;95.16;97977.75;4136635;28;20698;-52
2023/07/02 01:42:22;;;;;;;2.72;2.45;;;;;;;16.05;94.95;97988.34;4120783;28;20215;-51
2023/07/02 01:44:24;;;;;;;4.25;2.25;;;;;;;15.87;96.02;97985.53;4125026;28;20634;-52
2023/07/02 01:46:25;;;;;;;2.85;2.28;;;;;;;16.00;95.83;97982.88;4146966;28;20225;-51
2023/07/02 01:48:27;;;;;;;3.55;2.42;;;;;;;15.90;96.15;97984.97;4149081;28;20209;-52
2023/07/02 01:50:29;;;;;;;2.88;2.15;;;;;;;15.80;96.90;97991.44;4135691;28;20223;-53
2023/07/02 01:52:33;;;;;;;3.00;1.95;;;;;;;15.80;97.22;97990.59;4140738;28;20225;-52
2023/07/02 01:54:35;;;;;;;2.55;2.30;;;;;;;15.72;97.63;97994.88;4132522;28;20292;-53
2023/07/02 01:56:37;;;;;;;2.53;2.30;;;;;;;15.65;98.23;97988.91;4135040;28;20309;-52
2023/07/02 01:58:38;;;;;;;2.42;1.95;;;;;;;15.78;97.99;98004.72;4146935;28;20928;-52
2023/07/02 02:00:40;;;;;;;5.28;2.30;;;;;;;15.76;97.72;98001.41;4135084;28;20241;-51
2023/07/02 02:02:43;;;;;;;4.60;2.30;;;;;;;15.74;98.44;97998.16;4136742;28;20209;-52
2023/07/02 02:04:45;;;;;;;3.40;2.33;;;;;;;15.80;98.15;97994.22;4133554;28;20695;-52
2023/07/02 02:06:47;;;;;;;4.07;2.78;;;;;;;15.65;98.13;97999.94;4139237;28;20751;-52
2023/07/02 02:08:48;;;;;;;4.03;2.75;;;;;;;15.61;98.65;98004.38;4149521;28;20217;-52
2023/07/02 02:10:50;;;;;;;3.42;2.55;;;;;;;15.66;98.07;98001.56;4147652;28;20214;-52
2023/07/02 02:12:52;;;;;;;2.67;2.00;;;;;;;15.66;98.32;98012.59;4147427;28;20656;-52
2023/07/02 02:14:54;;;;;;;4.00;2.95;;;;;;;15.69;97.95;98003.72;4135597;28;20644;-51
2023/07/02 02:16:56;;;;;;;2.78;2.22;;;;;;;15.72;97.12;98005.06;4134662;28;20296;-51
2023/07/02 02:18:57;;;;;;;3.45;3.15;;;;;;;15.67;97.03;98008.72;4135666;28;20308;-51
2023/07/02 02:20:59;;;;;;;5.10;3.10;;;;;;;15.63;96.68;98013.16;4136338;28;20256;-51
2023/07/02 02:23:02;;;;;;;4.00;3.17;;;;;;;15.65;96.88;98010.97;4120675;28;20209;-52
2023/07/02 02:25:04;;;;;;;3.25;2.60;;;;;;;15.71;96.80;98004.25;4135465;28;20259;-51
2023/07/02 02:27:06;;;;;;;4.07;2.85;;;;;;;15.79;96.19;98009.13;4147567;28;20229;-52
2023/07/02 02:29:08;;;;;;;3.67;3.30;;;;;;;15.72;96.18;98003.16;4146330;28;20210;-53
2023/07/02 02:31:09;;;;;;;3.47;2.45;;;;;;;15.69;96.28;98006.47;4145711;28;20214;-53
2023/07/02 02:33:11;;;;;;;4.07;2.92;;;;;;;15.53;96.98;98007.78;4146794;28;20226;-52
2023/07/02 02:35:13;;;;;;;5.22;2.92;;;;;;;15.59;97.13;98014.91;4135114;28;20688;-52
2023/07/02 02:37:15;;;;;;;6.70;2.80;;;;;;;15.63;96.84;98018.69;4134713;28;20233;-52
2023/07/02 02:39:20;;;;;;;3.75;3.17;;;;;;;15.73;96.56;98006.72;4146958;28;20262;-52
2023/07/02 02:41:21;;;;;;;3.60;2.10;;;;;;;15.59;97.24;98017.66;4148321;28;20243;-51
2023/07/02 02:43:23;;;;;;;5.68;2.95;;;;;;;15.42;98.27;98022.81;4123496;28;20249;-52
2023/07/02 02:45:25;;;;;;;5.85;2.75;;;;;;;15.52;97.66;98017.19;4134900;28;20229;-52
2023/07/02 02:47:27;;;;;;;5.13;3.70;;;;;;;15.45;98.21;98013.97;4140652;28;20218;-51
2023/07/02 02:49:29;;;;;;;3.25;2.90;;;;;;;15.48;98.11;98009.78;4134857;28;20963;-52
2023/07/02 02:51:30;;;;;;;3.33;2.97;;;;;;;15.53;97.71;98018.00;4135810;28;20213;-52
2023/07/02 02:53:32;;;;;;;7.30;2.92;;;;;;;15.58;97.57;98013.25;4147315;28;20264;-52
2023/07/02 02:55:38;;;;;;;4.65;3.45;;;;;;;15.63;97.61;98009.59;4122125;28;20210;-52
2023/07/02 02:57:40;;;;;;;4.07;3.10;;;;;;;15.52;98.55;98017.19;4133764;28;20315;-52
2023/07/02 02:59:42;;;;;;;3.67;2.50;;;;;;;15.47;98.59;98013.66;4136171;28;20213;-52
2023/07/02 03:01:43;;;;;;;5.57;2.67;;;;;;;15.45;98.80;98013.97;4131761;28;20271;-51
2023/07/02 03:03:45;;;;;;;5.38;2.70;;;;;;;15.42;98.50;98022.81;4135895;28;20240;-52
2023/07/02 03:05:48;;;;;;;3.65;2.53;;;;;;;15.38;99.26;98016.25;4143958;28;20229;-52
2023/07/02 03:07:50;;;;;;;4.47;2.83;;;;;;;15.34;99.61;98015.19;4135794;28;20213;-51
2023/07/02 03:09:52;;;;;;;3.47;2.47;;;;;;;15.35;99.56;98022.34;4151418;28;20209;-52
2023/07/02 03:11:54;;;;;;;5.72;3.38;;;;;;;15.40;99.33;98022.28;4120169;28;20249;-52
2023/07/02 03:13:56;;;;;;;2.95;2.15;;;;;;;15.51;98.41;98026.53;4134040;28;20280;-52
2023/07/02 03:15:58;;;;;;;6.32;3.42;;;;;;;15.48;98.75;98021.63;4142078;28;20632;-51
2023/07/02 03:18:00;;;;;;;4.82;2.90;;;;;;;15.46;99.12;98021.13;4143216;28;20691;-52
2023/07/02 03:20:04;;;;;;;2.90;2.60;;;;;;;15.49;99.21;98023.28;4139926;28;20212;-52
2023/07/02 03:22:05;;;;;;;8.05;2.75;;;;;;;15.34;99.78;98019.84;4138871;28;20642;-52
2023/07/02 03:24:07;;;;;;;6.57;3.00;;;;;;;15.21;100.00;98021.34;4135611;28;20197;-52
2023/07/02 03:26:09;;;;;;;3.75;2.80;;;;;;;15.28;100.00;98026.50;4134787;28;20234;-52
2023/07/02 03:28:11;;;;;;;4.03;3.30;;;;;;;15.26;100.00;98024.06;4134619;28;20222;-52
2023/07/02 03:30:13;;;;;;;3.22;2.95;;;;;;;15.39;99.79;98026.16;4134480;28;20206;-52
2023/07/02 03:32:15;;;;;;;6.40;3.22;;;;;;;15.34;99.91;98023.44;4133619;28;20411;-52
2023/07/02 03:34:17;;;;;;;3.90;3.33;;;;;;;15.26;100.00;98032.34;4130361;28;20238;-51
2023/07/02 03:36:19;;;;;;;3.42;3.00;;;;;;;15.38;99.78;98038.31;4133751;28;20569;-52
2023/07/02 03:38:21;;;;;;;3.38;2.75;;;;;;;15.39;99.55;98034.44;4135007;28;21798;-52
2023/07/02 03:40:23;;;;;;;3.97;3.35;;;;;;;15.34;99.37;98037.25;4136246;28;20567;-51
2023/07/02 03:42:25;;;;;;;5.70;3.17;;;;;;;15.38;99.27;98034.72;4133932;28;20220;-52
2023/07/02 03:44:26;;;;;;;4.30;3.35;;;;;;;15.44;99.19;98037.09;4137775;28;20284;-51
2023/07/02 03:46:30;;;;;;;7.18;3.63;;;;;;;15.28;99.22;98043.88;4134627;28;20240;-52
2023/07/02 03:48:32;;;;;;;5.13;3.72;;;;;;;15.31;99.33;98043.28;4136009;28;20305;-51
2023/07/02 03:50:33;;;;;;;4.00;3.42;;;;;;;15.30;99.54;98041.66;4141328;28;20205;-51
2023/07/02 03:52:35;;;;;;;3.97;3.08;;;;;;;15.40;98.99;98052.63;4135938;28;20224;-52
2023/07/02 03:54:37;;;;;;;3.58;3.25;;;;;;;15.50;98.17;98057.19;4138414;28;20229;-52
2023/07/02 03:56:39;;;;;;;9.07;4.68;;;;;;;15.35;98.00;98049.09;4140538;28;20264;-52
2023/07/02 03:58:41;;;;;;;5.13;4.03;;;;;;;15.26;98.53;98054.38;4136676;28;20284;-52
2023/07/02 04:00:44;;;;;;;4.25;3.85;;;;;;;15.41;98.14;98057.00;4136106;28;20662;-52
2023/07/02 04:02:46;;;;;;;6.55;4.43;;;;;;;15.39;97.58;98061.16;4124722;28;20367;-51
2023/07/02 04:04:48;;;;;;;4.80;4.35;;;;;;;15.32;98.01;98063.44;4126009;28;22007;-51
2023/07/02 04:06:49;;;;;;;5.95;4.63;;;;;;;15.27;97.88;98069.81;4141105;28;20288;-51
2023/07/02 04:08:51;;;;;;;5.20;4.70;;;;;;;15.37;97.65;98058.69;4131685;28;20951;-51
2023/07/02 04:10:54;;;;;;;5.25;3.95;;;;;;;15.40;97.35;98058.13;4134749;28;20212;-53
2023/07/02 04:12:56;;;;;;;5.30;4.80;;;;;;;15.40;96.86;98071.91;4138039;28;20225;-52
2023/07/02 04:14:58;;;;;;;7.22;5.25;;;;;;;15.38;96.91;98067.81;4122980;28;20738;-51
2023/07/02 04:17:03;;;;;;;6.30;4.50;;;;;;;15.35;97.26;98074.72;4129865;28;20260;-52
2023/07/02 04:19:05;;;;;;;6.13;5.15;;;;;;;15.36;97.08;98073.59;4139251;28;20202;-51
2023/07/02 04:21:10;;;;;;;6.53;5.50;;;;;;;15.40;97.01;98074.69;4137476;28;20210;-51
2023/07/02 04:23:11;;;;;;;7.50;5.85;;;;;;;15.35;96.83;98077.47;4145365;28;20730;-52
2023/07/02 04:25:17;;;;;;;14.38;6.22;;;;;;;15.45;96.77;98082.06;4137745;28;20216;-51
2023/07/02 04:27:39;;;;;;;7.80;6.53;;;;;;;15.43;96.75;98093.38;4136716;28;20297;-53
2023/07/02 04:29:53;;;;;;;7.15;5.20;;;;;;;15.39;96.98;98088.75;4134359;28;20205;-51
2023/07/02 04:31:55;;;;;;;6.40;5.22;;;;;;;15.36;97.42;98081.88;4146280;28;20920;-51
2023/07/02 04:33:57;;;;;;;7.00;5.82;;;;;;;15.27;97.63;98091.88;4132475;28;20233;-51
2023/07/02 04:35:59;;;;;;;7.30;5.68;;;;;;;15.38;97.13;98085.19;4138068;28;20244;-51
2023/07/02 04:38:01;;;;;;;7.95;6.05;;;;;;;15.34;97.49;98086.88;4134293;28;20240;-51
2023/07/02 04:40:06;;;;;;;6.90;6.13;;;;;;;15.42;96.98;98088.97;4153414;28;20216;-52
2023/07/02 04:42:09;;;;;;;7.50;6.35;;;;;;;15.40;97.06;98090.38;4151913;28;20264;-52
2023/07/02 04:44:11;;;;;;;7.38;6.57;;;;;;;15.42;97.18;98093.69;4148537;28;20725;-51
2023/07/02 04:46:13;;;;;;;8.48;7.05;;;;;;;15.41;97.16;98098.38;4138511;28;20279;-51
2023/07/02 04:48:15;;;;;;;7.93;7.13;;;;;;;15.36;97.34;98095.66;4137911;28;20210;-52
2023/07/02 04:50:18;;;;;;;8.02;5.78;;;;;;;15.51;97.07;98092.75;4139839;28;20213;-51
2023/07/02 04:52:23;;;;;;;8.60;7.30;;;;;;;15.34;97.46;98097.91;4150035;28;20843;-51
2023/07/02 04:54:24;;;;;;;6.43;5.82;;;;;;;15.34;97.43;98102.56;4138709;28;20352;-51
2023/07/02 04:56:26;;;;;;;10.20;6.60;;;;;;;15.50;97.11;98099.38;4139649;28;21107;-52
2023/07/02 04:58:28;;;;;;;7.68;6.88;;;;;;;15.38;97.42;98101.72;4138603;28;20209;-52
2023/07/02 05:00:30;;;;;;;7.55;6.15;;;;;;;15.48;96.99;98118.16;4126518;28;20198;-51
2023/07/02 05:02:32;;;;;;;9.77;6.80;;;;;;;15.44;97.51;98110.75;4142599;28;20220;-52
2023/07/02 05:04:34;;;;;;;8.00;6.82;;;;;;;15.51;97.40;98109.28;4140007;28;20220;-51
2023/07/02 05:06:36;;;;;;;9.60;8.30;;;;;;;15.49;97.15;98114.28;4155466;28;20343;-52
2023/07/02 05:08:38;;;;;;;8.85;8.05;;;;;;;15.44;97.64;98113.53;4136797;28;20214;-51
2023/07/02 05:10:43;;;;;;;8.82;7.35;;;;;;;15.50;97.35;98118.69;4138554;28;20209;-51
2023/07/02 05:12:45;;;;;;;7.80;7.03;;;;;;;15.53;97.44;98117.28;4138552;28;20252;-51
2023/07/02 05:14:46;;;;;;;7.10;6.20;;;;;;;15.67;96.67;98129.25;4124168;28;20370;-51
2023/07/02 05:16:49;;;;;;;8.27;7.38;;;;;;;15.59;96.70;98127.97;4141797;28;20320;-51
2023/07/02 05:18:50;;;;;;;9.38;7.68;;;;;;;15.65;96.69;98126.81;4153254;28;20229;-52
2023/07/02 05:20:52;;;;;;;12.55;6.82;;;;;;;15.62;96.54;98130.16;4138598;28;20212;-52
2023/07/02 05:22:54;;;;;;;8.10;7.28;;;;;;;15.65;96.46;98132.34;4149490;28;20213;-52
2023/07/02 05:24:56;;;;;;;8.73;7.70;;;;;;;15.73;96.68;98134.44;4140957;28;20295;-51
2023/07/02 05:26:58;;;;;;;13.05;8.55;;;;;;;15.72;95.91;98127.28;4150124;28;20240;-51
2023/07/02 05:29:00;;;;;;;10.02;7.47;;;;;;;15.83;95.67;98139.03;4139578;28;20766;-51
2023/07/02 05:31:02;;;;;;;9.95;8.93;;;;;;;15.87;95.52;98140.91;4153031;28;20829;-53
2023/07/02 05:33:04;;;;;;;13.25;8.27;;;;;;;16.05;94.81;98131.88;4139675;28;20210;-51
2023/07/02 05:35:06;;;;;;;14.18;9.40;;;;;;;15.94;94.93;98137.78;4142721;28;20225;-51
2023/07/02 05:37:08;;;;;;;11.77;9.02;;;;;;;16.09;94.31;98138.44;4137760;28;20225;-51
2023/07/02 05:39:10;;;;;;;8.55;7.70;;;;;;;16.23;93.71;98138.56;4127559;28;20242;-51
2023/07/02 05:41:18;;;;;;;9.18;8.30;;;;;;;16.26;92.91;98144.31;4137135;28;20296;-52
2023/07/02 05:43:20;;;;;;;10.15;8.25;;;;;;;16.26;93.94;98133.25;4151989;28;20209;-51
2023/07/02 05:45:23;;;;;;;9.50;7.45;;;;;;;16.42;92.99;98137.50;4137280;28;20658;-51
2023/07/02 05:47:24;;;;;;;11.35;9.07;;;;;;;16.50;92.57;98144.31;4150452;28;20217;-52
2023/07/02 05:49:30;;;;;;;9.20;7.55;;;;;;;16.64;91.25;98134.16;4135130;28;20220;-51
2023/07/02 05:51:32;;;;;;;16.73;8.40;;;;;;;16.64;91.04;98137.72;4138860;28;20216;-51
2023/07/02 05:53:35;;;;;;;8.25;7.45;;;;;;;16.86;90.61;98137.97;4135647;28;20202;-51
2023/07/02 05:55:37;;;;;;;8.57;7.75;;;;;;;17.04;89.97;98131.59;4138546;28;20209;-51
2023/07/02 05:57:41;;;;;;;13.57;9.93;;;;;;;17.29;89.40;98136.69;4151918;28;20205;-51
2023/07/02 05:59:42;;;;;;;14.13;9.50;;;;;;;17.50;87.94;98138.03;4140912;28;20207;-51
2023/07/02 06:01:45;;;;;;;9.60;8.57;;;;;;;17.42;87.09;98147.03;4139059;28;20210;-51
2023/07/02 06:03:49;;;;;;;9.52;8.57;;;;;;;17.39;87.31;98136.56;4148252;28;20941;-51
2023/07/02 06:05:51;;;;;;;10.38;8.60;;;;;;;17.59;86.92;98141.75;4142646;28;21335;-51
2023/07/02 06:07:53;;;;;;;10.45;8.45;;;;;;;17.60;85.58;98132.31;4131325;28;20656;-52
2023/07/02 06:09:55;;;;;;;13.15;8.07;;;;;;;17.65;86.53;98143.31;4134064;28;20210;-51
2023/07/02 06:11:57;;;;;;;8.55;7.63;;;;;;;17.72;85.29;98141.75;4136464;28;20216;-51
2023/07/02 06:13:59;;;;;;;20.70;10.10;;;;;;;17.82;84.63;98141.59;4145564;28;20224;-51
2023/07/02 06:16:00;;;;;;;14.55;9.25;;;;;;;18.11;83.62;98144.88;4146246;28;20330;-52
2023/07/02 06:18:02;;;;;;;11.82;8.82;;;;;;;18.12;82.66;98145.72;4151074;28;20640;-51
2023/07/02 06:20:05;;;;;;;13.98;8.77;;;;;;;18.04;82.52;98144.47;4133288;28;20261;-52
2023/07/02 06:22:07;;;;;;;10.50;9.25;;;;;;;18.13;82.63;98144.59;4140071;28;20289;-52
2023/07/02 06:24:09;;;;;;;10.00;8.80;;;;;;;17.95;82.91;98151.03;4149960;28;20209;-51
2023/07/02 06:26:11;;;;;;;13.85;9.32;;;;;;;18.24;82.22;98155.16;4135075;28;20696;-51
2023/07/02 06:28:13;;;;;;;10.45;9.43;;;;;;;18.51;81.07;98163.47;4136086;28;20205;-51
2023/07/02 06:30:15;;;;;;;10.55;8.77;;;;;;;18.58;80.21;98160.28;4136700;28;20213;-51
2023/07/02 06:32:16;;;;;;;10.98;8.70;;;;;;;18.29;80.72;98162.53;4134949;28;20209;-52
2023/07/02 06:34:18;;;;;;;44.50;10.77;;;;;;;18.56;80.16;98166.16;4139724;28;20630;-51
2023/07/02 06:36:20;;;;;;;11.85;10.57;;;;;;;18.25;81.05;98167.88;4147306;28;20237;-51
2023/07/02 06:38:23;;;;;;;9.07;8.13;;;;;;;18.27;81.07;98170.34;4134721;28;20237;-51
2023/07/02 06:40:26;;;;;;;11.70;10.00;;;;;;;18.22;81.48;98168.50;4134577;28;20284;-51
2023/07/02 06:42:28;;;;;;;13.65;9.48;;;;;;;18.07;82.22;98165.19;4148740;28;20303;-50
2023/07/02 06:44:30;;;;;;;13.50;9.85;;;;;;;18.21;81.99;98177.09;4134965;28;20205;-52
2023/07/02 06:46:32;;;;;;;14.35;10.60;;;;;;;18.27;81.80;98178.66;4130749;28;20230;-51
2023/07/02 06:48:34;;;;;;;13.52;10.63;;;;;;;18.65;81.35;98174.56;4135981;28;20201;-51
2023/07/02 06:50:35;;;;;;;12.77;11.15;;;;;;;18.63;80.65;98176.78;4138276;28;20238;-51
2023/07/02 06:52:37;;;;;;;12.73;11.23;;;;;;;18.90;79.20;98168.44;4132311;28;20204;-51
2023/07/02 06:54:40;;;;;;;17.70;11.13;;;;;;;19.11;79.42;98170.44;4130073;28;20229;-51
2023/07/02 06:56:43;;;;;;;12.63;10.68;;;;;;;18.73;79.40;98182.13;4138048;28;20229;-51
2023/07/02 06:58:45;;;;;;;16.95;11.40;;;;;;;18.80;79.32;98177.00;4135822;28;20208;-51
2023/07/02 07:00:47;;;;;;;12.35;11.10;;;;;;;19.13;78.53;98184.00;4136710;28;21937;-51
2023/07/02 07:02:49;;;;;;;15.80;13.07;;;;;;;18.81;77.15;98175.84;4135677;28;20224;-51
2023/07/02 07:04:51;;;;;;;12.90;11.88;;;;;;;18.98;76.85;98173.25;4120570;28;20205;-51
2023/07/02 07:06:55;;;;;;;14.68;13.30;;;;;;;18.78;78.05;98179.25;4139098;28;20716;-51
2023/07/02 07:08:56;;;;;;;13.63;12.20;;;;;;;19.02;76.89;98180.63;4136930;28;20206;-50
2023/07/02 07:10:58;;;;;;;21.92;12.98;;;;;;;19.21;77.38;98186.03;4138194;28;20684;-51
2023/07/02 07:13:02;;;;;;;14.95;13.35;;;;;;;19.23;75.18;98186.53;4140613;28;20210;-51
2023/07/02 07:15:04;;;;;;;16.15;13.75;;;;;;;18.55;76.58;98188.63;4136540;28;21059;-51
2023/07/02 07:17:06;;;;;;;22.15;14.23;;;;;;;18.60;77.17;98186.56;4150502;28;20233;-50
2023/07/02 07:19:08;;;;;;;16.08;14.57;;;;;;;18.57;77.90;98187.19;4136031;28;20209;-51
2023/07/02 07:21:10;;;;;;;17.98;14.63;;;;;;;18.37;78.63;98192.31;4136266;28;20284;-51
2023/07/02 07:23:11;;;;;;;15.73;14.18;;;;;;;18.50;78.89;98181.22;4142717;28;20252;-51
2023/07/02 07:25:13;;;;;;;16.83;14.35;;;;;;;18.82;77.44;98183.03;4146705;28;20205;-51
2023/07/02 07:27:18;;;;;;;18.33;14.23;;;;;;;19.28;75.83;98187.25;4138572;28;20769;-51
2023/07/02 07:29:19;;;;;;;21.63;14.43;;;;;;;19.44;74.70;98188.53;4145764;28;20213;-51
2023/07/02 07:31:21;;;;;;;15.48;13.45;;;;;;;19.39;72.80;98187.84;4135147;28;20748;-51
2023/07/02 07:33:23;;;;;;;16.08;14.57;;;;;;;19.47;73.32;98189.84;4141747;28;20610;-51
2023/07/02 07:35:25;;;;;;;18.30;14.63;;;;;;;19.10;73.49;98198.47;4134727;28;20283;-52
2023/07/02 07:37:27;;;;;;;17.00;14.18;;;;;;;18.91;74.47;98203.38;4135357;28;20811;-51
2023/07/02 07:39:29;;;;;;;17.55;15.60;;;;;;;19.12;74.98;98194.25;4139157;28;20613;-53
2023/07/02 07:41:30;;;;;;;15.30;13.88;;;;;;;19.56;72.88;98187.94;4132487;28;20300;-52
2023/07/02 07:43:33;;;;;;;16.17;14.48;;;;;;;20.07;72.85;98179.97;4148035;28;20208;-52
2023/07/02 07:45:35;;;;;;;16.05;14.45;;;;;;;20.57;70.61;98181.34;4150507;28;20203;-52
2023/07/02 07:47:38;;;;;;;17.83;15.77;;;;;;;20.38;69.63;98189.09;4136195;28;20204;-51
2023/07/02 07:49:40;;;;;;;18.35;15.55;;;;;;;20.17;70.11;98188.03;4147514;28;20242;-51
2023/07/02 07:51:42;;;;;;;17.80;15.40;;;;;;;19.86;70.90;98192.72;4133818;28;20213;-51
2023/07/02 07:53:43;;;;;;;16.90;15.02;;;;;;;19.44;72.06;98196.03;4138548;28;20663;-51
2023/07/02 07:55:45;;;;;;;21.63;15.32;;;;;;;19.31;71.35;98191.38;4149948;28;20236;-51
2023/07/02 07:57:47;;;;;;;18.05;16.30;;;;;;;19.73;70.08;98207.50;4136940;28;20220;-51
2023/07/02 07:59:49;;;;;;;20.63;17.00;;;;;;;19.91;68.49;98187.06;4137280;28;20208;-51
2023/07/02 08:01:50;;;;;;;16.55;14.85;;;;;;;19.80;68.23;98194.84;4134330;28;21190;-51
2023/07/02 08:03:52;;;;;;;18.20;15.38;;;;;;;19.59;67.69;98192.88;4118410;28;20271;-52
2023/07/02 08:05:54;;;;;;;16.95;14.68;;;;;;;19.70;68.64;98192.31;4138133;28;20255;-51
2023/07/02 08:07:57;;;;;;;23.75;15.95;;;;;;;19.85;66.11;98180.78;4135796;28;20213;-51
2023/07/02 08:10:00;;;;;;;22.80;14.77;;;;;;;20.11;66.27;98172.66;4143833;28;20208;-52
2023/07/02 08:12:03;;;;;;;15.75;13.95;;;;;;;20.11;66.90;98186.53;4137583;28;20702;-52
2023/07/02 08:14:04;;;;;;;26.20;15.07;;;;;;;20.07;65.83;98178.03;4146046;28;20212;-51
2023/07/02 08:16:06;;;;;;;17.10;15.27;;;;;;;19.68;67.06;98193.75;4151127;28;20672;-52
2023/07/02 08:18:09;;;;;;;23.95;16.95;;;;;;;19.79;66.23;98181.25;4119948;28;20897;-51
2023/07/02 08:20:11;;;;;;;17.67;15.90;;;;;;;19.75;66.90;98183.84;4132976;28;20270;-51
2023/07/02 08:22:13;;;;;;;23.45;16.05;;;;;;;19.80;67.24;98185.66;4150704;28;20678;-51
2023/07/02 08:24:15;;;;;;;14.57;13.07;;;;;;;19.92;64.38;98185.91;4136067;28;20659;-51
2023/07/02 08:26:17;;;;;;;15.82;14.00;;;;;;;20.43;64.18;98197.28;4138080;28;20264;-51
2023/07/02 08:28:18;;;;;;;19.13;15.43;;;;;;;20.27;64.22;98187.75;4136260;28;20304;-52
2023/07/02 08:30:20;;;;;;;17.33;14.98;;;;;;;20.04;63.72;98202.81;4149310;28;20216;-51
2023/07/02 08:32:22;;;;;;;16.98;14.93;;;;;;;20.19;61.79;98196.88;4133757;28;20230;-51
2023/07/02 08:34:24;;;;;;;13.93;12.52;;;;;;;20.66;61.21;98209.97;4136784;28;20225;-51
2023/07/02 08:36:26;;;;;;;16.50;14.82;;;;;;;20.78;60.52;98196.28;4147898;28;20224;-51
2023/07/02 08:38:28;;;;;;;16.80;14.77;;;;;;;20.62;60.50;98195.06;4147633;28;20215;-52
2023/07/02 08:40:29;;;;;;;18.13;15.15;;;;;;;20.34;61.27;98194.50;4137164;28;20590;-51
2023/07/02 08:42:33;;;;;;;16.38;14.63;;;;;;;20.31;61.29;98195.13;4136152;28;20204;-52
2023/07/02 08:44:37;;;;;;;17.88;15.20;;;;;;;20.79;59.12;98207.06;4145109;28;20679;-51
2023/07/02 08:46:41;;;;;;;17.30;15.57;;;;;;;20.30;60.00;98203.78;4134208;28;20317;-51
2023/07/02 08:48:43;;;;;;;18.90;15.85;;;;;;;20.48;60.28;98199.94;4145619;28;20288;-51
2023/07/02 08:50:44;;;;;;;15.68;13.90;;;;;;;20.33;58.70;98197.59;4132359;28;20202;-50
2023/07/02 08:52:47;;;;;;;19.13;17.00;;;;;;;19.95;59.81;98201.94;4135564;28;20278;-51
2023/07/02 08:54:48;;;;;;;18.75;16.95;;;;;;;20.05;60.18;98202.50;4147312;28;20274;-50
2023/07/02 08:56:50;;;;;;;18.15;16.20;;;;;;;20.20;60.79;98212.41;4138007;28;20235;-51
2023/07/02 08:58:53;;;;;;;16.20;14.50;;;;;;;19.93;61.07;98221.72;4134068;28;20216;-52
2023/07/02 09:01:07;;;;;;;18.60;16.73;;;;;;;19.90;61.59;98208.44;4148710;28;20212;-50
2023/07/02 09:03:15;;;;;;;18.05;16.25;;;;;;;20.35;60.83;98217.53;4147109;28;21560;-50
2023/07/02 09:05:17;;;;;;;16.58;14.90;;;;;;;20.39;60.92;98219.34;4151009;28;20238;-51
2023/07/02 09:07:19;;;;;;;17.80;16.05;;;;;;;20.46;59.06;98213.34;4134679;28;20241;-51
2023/07/02 09:09:21;;;;;;;20.95;15.05;;;;;;;20.53;59.32;98208.97;4149091;28;20209;-51
2023/07/02 09:11:26;;;;;;;16.65;14.60;;;;;;;21.06;58.16;98206.84;4136459;28;20238;-52
2023/07/02 09:13:28;;;;;;;19.33;15.85;;;;;;;21.30;57.30;98211.94;4142605;28;20212;-51
2023/07/02 09:15:38;;;;;;;15.95;14.35;;;;;;;21.25;55.85;98217.66;4143166;28;20232;-51
2023/07/02 09:17:41;;;;;;;20.05;16.75;;;;;;;21.29;55.70;98210.28;4149055;28;20873;-51
2023/07/02 09:19:51;;;;;;;18.25;14.93;;;;;;;21.13;55.30;98217.47;4132941;28;20629;-51
2023/07/02 09:21:53;;;;;;;15.77;14.10;;;;;;;20.55;55.36;98220.56;4134754;28;20228;-51
2023/07/02 09:23:55;;;;;;;22.55;14.15;;;;;;;20.52;56.58;98229.53;4138579;28;20209;-50
2023/07/02 09:25:57;;;;;;;17.73;14.38;;;;;;;20.47;57.93;98226.94;4134328;28;20220;-51
2023/07/02 09:27:58;;;;;;;16.45;14.77;;;;;;;20.67;58.60;98225.50;4135311;28;20197;-52
2023/07/02 09:30:17;;;;;;;17.85;15.38;;;;;;;21.46;57.32;98218.66;4149387;28;20208;-51
2023/07/02 09:32:29;;;;;;;22.40;16.55;;;;;;;22.12;56.03;98226.47;4141706;28;20211;-51